TimeMST,TemperatureF,Dew PointF,Humidity,Sea Level PressureIn,VisibilityMPH,Wind Direction,Wind SpeedMPH,Gust SpeedMPH,PrecipitationIn,Events,Conditions,WindDirDegrees,DateUTC
12:15 AM,13.1,6.4,75,30.30,10.0,ESE,6.9,-,N/A,,Clear,110,2012-12-29 07:15:00
12:35 AM,12.4,5.9,75,30.30,10.0,Calm,Calm,-,N/A,,Clear,0,2012-12-29 07:35:00
12:55 AM,10.9,5.2,78,30.29,10.0,NE,8.1,-,N/A,,Clear,50,2012-12-29 07:55:00
1:15 AM,11.7,4.8,74,30.30,10.0,NE,6.9,-,N/A,,Clear,50,2012-12-29 08:15:00
1:35 AM,11.3,4.6,75,30.30,10.0,East,3.5,-,N/A,,Clear,90,2012-12-29 08:35:00
1:55 AM,10.0,4.3,78,30.31,10.0,East,3.5,-,N/A,,Clear,100,2012-12-29 08:55:00
2:15 AM,9.3,3.9,79,30.31,10.0,East,3.5,-,N/A,,Clear,80,2012-12-29 09:15:00
2:35 AM,8.6,3.7,81,30.32,10.0,Calm,Calm,-,N/A,,Clear,0,2012-12-29 09:35:00
2:55 AM,9.3,4.1,79,30.32,10.0,Calm,Calm,-,N/A,,Clear,0,2012-12-29 09:55:00
3:15 AM,9.5,4.1,79,30.32,10.0,Calm,Calm,-,N/A,,Clear,0,2012-12-29 10:15:00
3:35 AM,8.1,2.7,79,30.32,10.0,ESE,3.5,-,N/A,,Clear,110,2012-12-29 10:35:00
3:55 AM,8.2,2.8,79,30.32,10.0,Calm,Calm,-,N/A,,Clear,0,2012-12-29 10:55:00
4:15 AM,6.4,1.9,82,30.32,10.0,ENE,4.6,-,N/A,,Clear,70,2012-12-29 11:15:00
4:35 AM,7.0,2.5,82,30.30,10.0,ENE,6.9,-,N/A,,Clear,60,2012-12-29 11:35:00
4:55 AM,7.7,2.3,79,30.30,10.0,ENE,4.6,-,N/A,,Clear,70,2012-12-29 11:55:00
5:15 AM,7.5,2.1,79,30.30,10.0,NE,4.6,-,N/A,,Clear,50,2012-12-29 12:15:00
5:35 AM,6.1,1.0,80,30.31,10.0,Calm,Calm,-,N/A,,Clear,0,2012-12-29 12:35:00
5:55 AM,6.6,1.6,80,30.30,10.0,Calm,Calm,-,N/A,,Clear,0,2012-12-29 12:55:00
6:15 AM,6.4,1.2,79,30.32,10.0,Calm,Calm,-,N/A,,Clear,0,2012-12-29 13:15:00
6:35 AM,6.8,1.0,77,30.32,10.0,NE,5.8,-,N/A,,Clear,40,2012-12-29 13:35:00
6:55 AM,6.1,0.3,77,30.32,10.0,ENE,4.6,-,N/A,,Clear,60,2012-12-29 13:55:00
7:15 AM,5.9,0.1,77,30.31,10.0,ENE,3.5,-,N/A,,Clear,70,2012-12-29 14:15:00
7:35 AM,5.9,0.3,78,30.31,10.0,NE,4.6,-,N/A,,Clear,50,2012-12-29 14:35:00
7:55 AM,6.1,0.7,78,30.30,10.0,NE,3.5,-,N/A,,Clear,50,2012-12-29 14:55:00
8:15 AM,8.8,2.7,76,30.31,10.0,NE,3.5,-,N/A,,Clear,50,2012-12-29 15:15:00
8:35 AM,10.4,2.8,72,30.31,10.0,Calm,Calm,-,N/A,,Clear,0,2012-12-29 15:35:00
8:55 AM,11.1,3.0,70,30.32,10.0,Calm,Calm,-,N/A,,Clear,0,2012-12-29 15:55:00
9:15 AM,12.2,3.4,68,30.30,10.0,NNE,5.8,-,N/A,,Clear,20,2012-12-29 16:15:00
9:35 AM,13.8,4.3,66,30.30,10.0,Calm,Calm,-,N/A,,Clear,0,2012-12-29 16:35:00
9:55 AM,14.7,4.8,65,30.31,10.0,ESE,3.5,-,N/A,,Clear,120,2012-12-29 16:55:00
10:15 AM,14.7,4.8,65,30.30,10.0,Calm,Calm,-,N/A,,Clear,0,2012-12-29 17:15:00
10:35 AM,15.6,5.2,63,30.30,10.0,Calm,Calm,-,N/A,,Clear,0,2012-12-29 17:35:00
10:55 AM,15.8,5.4,63,30.30,10.0,Calm,Calm,-,N/A,,Clear,0,2012-12-29 17:55:00
11:15 AM,16.5,5.7,63,30.28,10.0,Calm,Calm,-,N/A,,Clear,0,2012-12-29 18:15:00
11:35 AM,18.1,6.6,61,30.26,10.0,Calm,Calm,-,N/A,,Clear,0,2012-12-29 18:35:00
11:55 AM,20.1,7.7,59,30.25,10.0,Calm,Calm,-,N/A,,Clear,0,2012-12-29 18:55:00
12:15 PM,20.5,6.4,55,30.24,10.0,Calm,Calm,-,N/A,,Clear,0,2012-12-29 19:15:00
12:35 PM,20.8,6.6,54,30.22,10.0,Calm,Calm,-,N/A,,Clear,0,2012-12-29 19:35:00
12:55 PM,21.9,6.1,51,30.21,10.0,Calm,Calm,-,N/A,,Clear,0,2012-12-29 19:55:00
1:35 PM,23.7,7.7,51,30.17,10.0,East,4.6,-,N/A,,Clear,80,2012-12-29 20:35:00
1:55 PM,24.4,7.7,49,30.16,10.0,East,4.6,-,N/A,,Clear,80,2012-12-29 20:55:00
2:15 PM,25.7,9.5,50,30.15,10.0,East,3.5,-,N/A,,Clear,90,2012-12-29 21:15:00
2:35 PM,26.1,9.7,50,30.14,10.0,Calm,Calm,-,N/A,,Clear,0,2012-12-29 21:35:00
2:55 PM,26.4,9.1,48,30.14,10.0,Calm,Calm,-,N/A,,Clear,0,2012-12-29 21:55:00
3:15 PM,26.8,9.5,48,30.13,10.0,Calm,Calm,-,N/A,,Clear,0,2012-12-29 22:15:00
3:35 PM,26.4,8.2,46,30.11,10.0,Calm,Calm,-,N/A,,Clear,0,2012-12-29 22:35:00
3:55 PM,26.4,8.4,47,30.11,10.0,Calm,Calm,-,N/A,,Clear,0,2012-12-29 22:55:00
4:15 PM,25.9,9.0,49,30.12,10.0,WSW,4.6,-,N/A,,Clear,250,2012-12-29 23:15:00
4:35 PM,25.7,8.8,49,30.11,10.0,West,4.6,-,N/A,,Clear,260,2012-12-29 23:35:00
4:55 PM,25.5,7.9,47,30.10,10.0,West,6.9,-,N/A,,Clear,260,2012-12-29 23:55:00
5:15 PM,24.6,8.6,51,30.10,10.0,West,5.8,-,N/A,,Clear,260,2012-12-30 00:15:00
5:35 PM,23.4,9.5,55,30.10,10.0,SW,3.5,-,N/A,,Clear,220,2012-12-30 00:35:00
5:55 PM,22.5,10.0,59,30.10,10.0,SSW,3.5,-,N/A,,Clear,200,2012-12-30 00:55:00
6:15 PM,20.5,10.8,66,30.11,10.0,Calm,Calm,-,N/A,,Clear,0,2012-12-30 01:15:00
6:35 PM,19.4,10.0,67,30.11,10.0,Calm,Calm,-,N/A,,Clear,0,2012-12-30 01:35:00
6:55 PM,17.2,10.2,74,30.12,10.0,ENE,5.8,-,N/A,,Clear,70,2012-12-30 01:55:00
7:15 PM,16.7,10.2,76,30.12,10.0,ENE,6.9,-,N/A,,Clear,60,2012-12-30 02:15:00
7:35 PM,16.7,9.9,74,30.12,10.0,NE,5.8,-,N/A,,Clear,40,2012-12-30 02:35:00
7:55 PM,15.8,9.1,75,30.12,10.0,NNE,4.6,-,N/A,,Clear,30,2012-12-30 02:55:00
8:15 PM,16.2,9.0,73,30.13,10.0,NNE,4.6,-,N/A,,Clear,30,2012-12-30 03:15:00
8:35 PM,15.8,8.6,73,30.13,10.0,NE,3.5,-,N/A,,Clear,40,2012-12-30 03:35:00
8:55 PM,15.4,8.4,74,30.12,10.0,NE,5.8,-,N/A,,Clear,40,2012-12-30 03:55:00
9:15 PM,15.1,8.2,74,30.11,10.0,NNE,5.8,-,N/A,,Clear,30,2012-12-30 04:15:00
9:35 PM,14.9,7.7,73,30.11,10.0,NNE,3.5,-,N/A,,Clear,20,2012-12-30 04:35:00
9:55 PM,15.1,8.2,74,30.11,10.0,Calm,Calm,-,N/A,,Clear,0,2012-12-30 04:55:00
10:15 PM,12.9,7.2,78,30.11,10.0,Calm,Calm,-,N/A,,Clear,0,2012-12-30 05:15:00
10:35 PM,12.7,7.2,78,30.11,10.0,NW,3.5,-,N/A,,Clear,320,2012-12-30 05:35:00
10:55 PM,12.2,7.0,80,30.11,10.0,Calm,Calm,-,N/A,,Clear,0,2012-12-30 05:55:00
11:15 PM,12.9,6.6,76,30.11,10.0,NNE,4.6,-,N/A,,Clear,20,2012-12-30 06:15:00
11:35 PM,11.5,5.7,78,30.10,10.0,NE,5.8,-,N/A,,Clear,50,2012-12-30 06:35:00
11:55 PM,10.0,4.8,79,30.09,10.0,Calm,Calm,-,N/A,,Clear,0,2012-12-30 06:55:00